sensor_id;sensor_type;location;lat;lon;timestamp;pressure;altitude;pressure_sealevel;temperature;humidity
55038;BME280;40937;53.594;10.034;2022-11-14T00:01:06;79207.38;;;-147.20;71.85
55038;BME280;40937;53.594;10.034;2022-11-14T00:03:52;79207.38;;;-147.20;72.00
55038;BME280;40937;53.594;10.034;2022-11-14T00:06:37;79219.50;;;-147.20;72.20
55038;BME280;40937;53.594;10.034;2022-11-14T00:09:24;79229.59;;;-147.20;72.20
55038;BME280;40937;53.594;10.034;2022-11-14T00:12:10;79237.69;;;-147.20;72.01
55038;BME280;40937;53.594;10.034;2022-11-14T00:14:56;79239.72;;;-147.20;72.18
55038;BME280;40937;53.594;10.034;2022-11-14T00:17:42;79231.63;;;-147.20;71.93
55038;BME280;40937;53.594;10.034;2022-11-14T00:20:28;79223.53;;;-147.20;72.02
55038;BME280;40937;53.594;10.034;2022-11-14T00:23:13;79237.69;;;-147.20;72.37
55038;BME280;40937;53.594;10.034;2022-11-14T00:25:59;79235.66;;;-147.20;72.59
55038;BME280;40937;53.594;10.034;2022-11-14T00:28:44;79227.59;;;-147.20;72.59
55038;BME280;40937;53.594;10.034;2022-11-14T00:31:29;79231.63;;;-147.20;72.48
55038;BME280;40937;53.594;10.034;2022-11-14T00:34:16;79229.59;;;-147.20;72.44
55038;BME280;40937;53.594;10.034;2022-11-14T00:37:01;79231.63;;;-147.20;72.61
55038;BME280;40937;53.594;10.034;2022-11-14T00:39:46;79233.66;;;-147.20;72.88
55038;BME280;40937;53.594;10.034;2022-11-14T00:42:32;79235.66;;;-147.20;72.59
55038;BME280;40937;53.594;10.034;2022-11-14T00:45:18;79219.50;;;-147.20;72.17
55038;BME280;40937;53.594;10.034;2022-11-14T00:48:04;79215.47;;;-147.20;71.93
55038;BME280;40937;53.594;10.034;2022-11-14T00:50:51;79215.47;;;-147.20;72.03
55038;BME280;40937;53.594;10.034;2022-11-14T00:53:36;79235.66;;;-147.20;72.27
55038;BME280;40937;53.594;10.034;2022-11-14T00:56:21;79233.66;;;-147.20;72.43
55038;BME280;40937;53.594;10.034;2022-11-14T00:59:07;79235.66;;;-147.20;72.44
55038;BME280;40937;53.594;10.034;2022-11-14T01:01:51;79221.53;;;-147.20;72.46
55038;BME280;40937;53.594;10.034;2022-11-14T01:04:37;79219.50;;;-147.20;72.39
55038;BME280;40937;53.594;10.034;2022-11-14T01:07:23;79209.41;;;-147.20;72.09
55038;BME280;40937;53.594;10.034;2022-11-14T01:10:09;79221.53;;;-147.20;72.03
55038;BME280;40937;53.594;10.034;2022-11-14T01:12:54;79229.59;;;-147.20;72.76
55038;BME280;40937;53.594;10.034;2022-11-14T01:15:40;79229.59;;;-147.20;72.34
55038;BME280;40937;53.594;10.034;2022-11-14T01:18:26;79215.47;;;-147.20;72.04
55038;BME280;40937;53.594;10.034;2022-11-14T01:21:12;79221.53;;;-147.20;72.29
55038;BME280;40937;53.594;10.034;2022-11-14T01:23:59;79211.44;;;-147.20;72.24
55038;BME280;40937;53.594;10.034;2022-11-14T01:26:45;79231.63;;;-147.20;72.64
55038;BME280;40937;53.594;10.034;2022-11-14T01:29:30;79233.66;;;-147.20;73.08
55038;BME280;40937;53.594;10.034;2022-11-14T01:32:15;79229.59;;;-147.20;73.18
55038;BME280;40937;53.594;10.034;2022-11-14T01:35:01;79205.38;;;-147.20;72.27
55038;BME280;40937;53.594;10.034;2022-11-14T01:37:46;79215.47;;;-147.20;72.70
55038;BME280;40937;53.594;10.034;2022-11-14T01:40:33;79213.44;;;-147.20;72.85
55038;BME280;40937;53.594;10.034;2022-11-14T01:43:25;79217.50;;;-147.20;73.07
55038;BME280;40937;53.594;10.034;2022-11-14T01:46:13;79201.34;;;-147.20;72.64
55038;BME280;40937;53.594;10.034;2022-11-14T01:49:02;79211.44;;;-147.20;73.16
55038;BME280;40937;53.594;10.034;2022-11-14T01:51:50;79203.34;;;-147.20;73.24
55038;BME280;40937;53.594;10.034;2022-11-14T01:54:40;79191.22;;;-147.20;73.05
55038;BME280;40937;53.594;10.034;2022-11-14T01:57:34;79211.44;;;-147.20;73.22
55038;BME280;40937;53.594;10.034;2022-11-14T02:00:20;79201.34;;;-147.20;72.83
55038;BME280;40937;53.594;10.034;2022-11-14T02:03:05;79197.28;;;-147.20;73.24
55038;BME280;40937;53.594;10.034;2022-11-14T02:05:51;79193.25;;;-147.20;73.44
55038;BME280;40937;53.594;10.034;2022-11-14T02:08:38;79189.22;;;-147.20;73.08
55038;BME280;40937;53.594;10.034;2022-11-14T02:11:24;79187.19;;;-147.20;72.83
55038;BME280;40937;53.594;10.034;2022-11-14T02:14:11;79191.22;;;-147.20;73.25
55038;BME280;40937;53.594;10.034;2022-11-14T02:16:56;79193.25;;;-147.20;73.18
55038;BME280;40937;53.594;10.034;2022-11-14T02:19:43;79185.19;;;-147.20;73.61
55038;BME280;40937;53.594;10.034;2022-11-14T02:22:30;79189.22;;;-147.20;73.80
55038;BME280;40937;53.594;10.034;2022-11-14T02:25:16;79173.06;;;-147.20;73.20
55038;BME280;40937;53.594;10.034;2022-11-14T02:28:03;79179.13;;;-147.20;73.61
55038;BME280;40937;53.594;10.034;2022-11-14T02:30:49;79171.03;;;-147.20;73.37
55038;BME280;40937;53.594;10.034;2022-11-14T02:33:34;79171.03;;;-147.20;73.35
55038;BME280;40937;53.594;10.034;2022-11-14T02:36:20;79181.13;;;-147.20;73.73
55038;BME280;40937;53.594;10.034;2022-11-14T02:39:06;79173.06;;;-147.20;73.55
55038;BME280;40937;53.594;10.034;2022-11-14T02:41:52;79156.91;;;-147.20;73.10
55038;BME280;40937;53.594;10.034;2022-11-14T02:44:37;79169.00;;;-147.20;73.54
55038;BME280;40937;53.594;10.034;2022-11-14T02:47:22;79158.91;;;-147.20;73.29
55038;BME280;40937;53.594;10.034;2022-11-14T02:50:08;79156.91;;;-147.20;73.46
55038;BME280;40937;53.594;10.034;2022-11-14T02:52:53;79150.84;;;-147.20;73.03
55038;BME280;40937;53.594;10.034;2022-11-14T02:55:40;79148.81;;;-147.20;72.90
55038;BME280;40937;53.594;10.034;2022-11-14T02:58:26;79150.84;;;-147.20;72.92
55038;BME280;40937;53.594;10.034;2022-11-14T03:01:11;79142.75;;;-147.20;73.22
55038;BME280;40937;53.594;10.034;2022-11-14T03:03:56;79146.81;;;-147.20;73.19
55038;BME280;40937;53.594;10.034;2022-11-14T03:06:41;79142.75;;;-147.20;73.47
55038;BME280;40937;53.594;10.034;2022-11-14T03:09:27;79142.75;;;-147.20;73.77
55038;BME280;40937;53.594;10.034;2022-11-14T03:12:16;79130.63;;;-147.20;73.33
55038;BME280;40937;53.594;10.034;2022-11-14T03:15:01;79134.69;;;-147.20;73.70
55038;BME280;40937;53.594;10.034;2022-11-14T03:17:46;79132.66;;;-147.20;73.64
55038;BME280;40937;53.594;10.034;2022-11-14T03:20:32;79136.69;;;-147.20;73.71
55038;BME280;40937;53.594;10.034;2022-11-14T03:23:17;79128.63;;;-147.20;73.79
55038;BME280;40937;53.594;10.034;2022-11-14T03:26:05;79128.63;;;-147.20;73.98
55038;BME280;40937;53.594;10.034;2022-11-14T03:28:53;79114.47;;;-147.20;73.32
55038;BME280;40937;53.594;10.034;2022-11-14T03:31:39;79122.56;;;-147.20;73.66
55038;BME280;40937;53.594;10.034;2022-11-14T03:34:24;79106.41;;;-147.20;73.54
55038;BME280;40937;53.594;10.034;2022-11-14T03:37:09;79108.44;;;-147.20;73.50
55038;BME280;40937;53.594;10.034;2022-11-14T03:39:54;79114.47;;;-147.20;73.77
55038;BME280;40937;53.594;10.034;2022-11-14T03:42:40;79118.53;;;-147.20;73.90
55038;BME280;40937;53.594;10.034;2022-11-14T03:45:26;79120.53;;;-147.20;74.04
55038;BME280;40937;53.594;10.034;2022-11-14T03:48:12;79116.50;;;-147.20;74.07
55038;BME280;40937;53.594;10.034;2022-11-14T03:50:57;79102.38;;;-147.20;73.35
55038;BME280;40937;53.594;10.034;2022-11-14T03:53:43;79110.44;;;-147.20;73.77
55038;BME280;40937;53.594;10.034;2022-11-14T03:56:28;79110.44;;;-147.20;74.11
55038;BME280;40937;53.594;10.034;2022-11-14T03:59:13;79104.38;;;-147.20;73.74
55038;BME280;40937;53.594;10.034;2022-11-14T04:02:00;79112.47;;;-147.20;73.68
55038;BME280;40937;53.594;10.034;2022-11-14T04:04:45;79100.34;;;-147.20;73.47
55038;BME280;40937;53.594;10.034;2022-11-14T04:07:31;79106.41;;;-147.20;73.26
55038;BME280;40937;53.594;10.034;2022-11-14T04:10:16;79092.28;;;-147.20;72.57
55038;BME280;40937;53.594;10.034;2022-11-14T04:13:03;79098.31;;;-147.20;72.59
55038;BME280;40937;53.594;10.034;2022-11-14T04:15:53;79110.44;;;-147.20;73.14
55038;BME280;40937;53.594;10.034;2022-11-14T04:18:39;79114.47;;;-147.20;73.56
55038;BME280;40937;53.594;10.034;2022-11-14T04:21:25;79112.47;;;-147.20;73.61
55038;BME280;40937;53.594;10.034;2022-11-14T04:24:10;79096.31;;;-147.20;73.21
55038;BME280;40937;53.594;10.034;2022-11-14T04:26:55;79098.31;;;-147.20;73.47
55038;BME280;40937;53.594;10.034;2022-11-14T04:29:41;79094.28;;;-147.20;73.54
55038;BME280;40937;53.594;10.034;2022-11-14T04:32:26;79090.25;;;-147.20;73.40
55038;BME280;40937;53.594;10.034;2022-11-14T04:35:13;79090.25;;;-147.20;73.27
55038;BME280;40937;53.594;10.034;2022-11-14T04:37:58;79084.19;;;-147.20;73.18
55038;BME280;40937;53.594;10.034;2022-11-14T04:40:47;79074.09;;;-147.20;72.41
55038;BME280;40937;53.594;10.034;2022-11-14T04:43:33;79082.16;;;-147.20;72.40
55038;BME280;40937;53.594;10.034;2022-11-14T04:46:18;79092.28;;;-147.20;73.05
55038;BME280;40937;53.594;10.034;2022-11-14T04:49:04;79090.25;;;-147.20;73.03
55038;BME280;40937;53.594;10.034;2022-11-14T04:51:50;79061.97;;;-147.20;72.23
55038;BME280;40937;53.594;10.034;2022-11-14T04:54:36;79074.09;;;-147.20;72.55
55038;BME280;40937;53.594;10.034;2022-11-14T04:57:21;79080.16;;;-147.20;72.66
55038;BME280;40937;53.594;10.034;2022-11-14T05:00:07;79100.34;;;-147.20;73.15
55038;BME280;40937;53.594;10.034;2022-11-14T05:02:53;79092.28;;;-147.20;73.03
55038;BME280;40937;53.594;10.034;2022-11-14T05:05:38;79088.22;;;-147.20;72.81
55038;BME280;40937;53.594;10.034;2022-11-14T05:08:25;79092.28;;;-147.20;72.81
55038;BME280;40937;53.594;10.034;2022-11-14T05:11:13;79090.25;;;-147.20;73.25
55038;BME280;40937;53.594;10.034;2022-11-14T05:13:58;79090.25;;;-147.20;73.35
55038;BME280;40937;53.594;10.034;2022-11-14T05:16:43;79084.19;;;-147.20;73.42
55038;BME280;40937;53.594;10.034;2022-11-14T05:19:28;79084.19;;;-147.20;73.56
55038;BME280;40937;53.594;10.034;2022-11-14T05:22:13;79059.97;;;-147.20;72.86
55038;BME280;40937;53.594;10.034;2022-11-14T05:25:00;79059.97;;;-147.20;72.88
55038;BME280;40937;53.594;10.034;2022-11-14T05:27:46;79068.03;;;-147.20;73.39
55038;BME280;40937;53.594;10.034;2022-11-14T05:30:31;79064.00;;;-147.20;73.40
55038;BME280;40937;53.594;10.034;2022-11-14T05:33:16;79068.03;;;-147.20;73.38
55038;BME280;40937;53.594;10.034;2022-11-14T05:36:02;79066.00;;;-147.20;73.30
55038;BME280;40937;53.594;10.034;2022-11-14T05:38:48;79068.03;;;-147.20;73.42
55038;BME280;40937;53.594;10.034;2022-11-14T05:41:34;79066.00;;;-147.20;73.10
55038;BME280;40937;53.594;10.034;2022-11-14T05:44:19;79072.06;;;-147.20;73.32
55038;BME280;40937;53.594;10.034;2022-11-14T05:47:05;79076.13;;;-147.20;73.22
55038;BME280;40937;53.594;10.034;2022-11-14T05:49:50;79090.25;;;-147.20;73.51
55038;BME280;40937;53.594;10.034;2022-11-14T05:52:35;79090.25;;;-147.20;73.88
55038;BME280;40937;53.594;10.034;2022-11-14T05:55:21;79078.13;;;-147.20;73.64
55038;BME280;40937;53.594;10.034;2022-11-14T05:58:07;79090.25;;;-147.20;73.86
55038;BME280;40937;53.594;10.034;2022-11-14T06:01:00;79094.28;;;-147.20;74.06
55038;BME280;40937;53.594;10.034;2022-11-14T06:03:46;79076.13;;;-147.20;73.52
55038;BME280;40937;53.594;10.034;2022-11-14T06:06:32;79098.31;;;-147.20;73.84
55038;BME280;40937;53.594;10.034;2022-11-14T06:09:17;79096.31;;;-147.20;74.05
55038;BME280;40937;53.594;10.034;2022-11-14T06:12:03;79088.22;;;-147.20;73.84
55038;BME280;40937;53.594;10.034;2022-11-14T06:14:52;79090.25;;;-147.20;73.79
55038;BME280;40937;53.594;10.034;2022-11-14T06:17:37;79098.31;;;-147.20;74.03
55038;BME280;40937;53.594;10.034;2022-11-14T06:20:22;79088.22;;;-147.20;73.30
55038;BME280;40937;53.594;10.034;2022-11-14T06:23:08;79096.31;;;-147.20;73.67
55038;BME280;40937;53.594;10.034;2022-11-14T06:25:57;79092.28;;;-147.20;73.68
55038;BME280;40937;53.594;10.034;2022-11-14T06:28:42;79106.41;;;-147.20;73.62
55038;BME280;40937;53.594;10.034;2022-11-14T06:31:29;79110.44;;;-147.20;73.98
55038;BME280;40937;53.594;10.034;2022-11-14T06:34:14;79114.47;;;-147.20;73.83
55038;BME280;40937;53.594;10.034;2022-11-14T06:36:59;79110.44;;;-147.20;73.79
55038;BME280;40937;53.594;10.034;2022-11-14T06:39:45;79114.47;;;-147.20;74.15
55038;BME280;40937;53.594;10.034;2022-11-14T06:42:30;79106.41;;;-147.20;73.83
55038;BME280;40937;53.594;10.034;2022-11-14T06:45:15;79114.47;;;-147.20;74.05
55038;BME280;40937;53.594;10.034;2022-11-14T06:48:02;79110.44;;;-147.20;74.11
55038;BME280;40937;53.594;10.034;2022-11-14T06:50:50;79098.31;;;-147.20;73.42
55038;BME280;40937;53.594;10.034;2022-11-14T06:53:36;79116.50;;;-147.20;73.81
55038;BME280;40937;53.594;10.034;2022-11-14T06:56:21;79118.53;;;-147.20;73.92
55038;BME280;40937;53.594;10.034;2022-11-14T06:59:06;79112.47;;;-147.20;73.97
55038;BME280;40937;53.594;10.034;2022-11-14T07:01:52;79116.50;;;-147.20;74.16
55038;BME280;40937;53.594;10.034;2022-11-14T07:04:38;79114.47;;;-147.20;74.21
55038;BME280;40937;53.594;10.034;2022-11-14T07:07:24;79106.41;;;-147.20;74.13
55038;BME280;40937;53.594;10.034;2022-11-14T07:10:10;79102.38;;;-147.20;73.99
55038;BME280;40937;53.594;10.034;2022-11-14T07:15:48;79102.38;;;-147.20;73.74
55038;BME280;40937;53.594;10.034;2022-11-14T07:18:43;79106.41;;;-147.20;73.30
55038;BME280;40937;53.594;10.034;2022-11-14T07:21:33;79114.47;;;-147.20;73.91
55038;BME280;40937;53.594;10.034;2022-11-14T07:24:23;79116.50;;;-147.20;73.99
55038;BME280;40937;53.594;10.034;2022-11-14T07:27:15;79114.47;;;-147.20;74.21
55038;BME280;40937;53.594;10.034;2022-11-14T07:30:05;79114.47;;;-147.20;74.30
55038;BME280;40937;53.594;10.034;2022-11-14T07:33:14;79118.53;;;-147.20;73.51
55038;BME280;40937;53.594;10.034;2022-11-14T07:36:20;79112.47;;;-147.20;74.77
55038;BME280;40937;53.594;10.034;2022-11-14T07:39:13;79124.59;;;-147.20;74.18
55038;BME280;40937;53.594;10.034;2022-11-14T07:42:03;79134.69;;;-147.20;74.06
55038;BME280;40937;53.594;10.034;2022-11-14T07:44:57;79100.34;;;-147.20;80.45
55038;BME280;40937;53.594;10.034;2022-11-14T07:47:42;79098.31;;;-147.20;74.28
55038;BME280;40937;53.594;10.034;2022-11-14T07:50:28;79102.38;;;-147.20;74.00
55038;BME280;40937;53.594;10.034;2022-11-14T07:53:13;79100.34;;;-147.20;73.91
55038;BME280;40937;53.594;10.034;2022-11-14T07:56:04;79108.44;;;-147.20;74.47
55038;BME280;40937;53.594;10.034;2022-11-14T07:58:52;79108.44;;;-147.20;74.59
55038;BME280;40937;53.594;10.034;2022-11-14T08:01:38;79096.31;;;-147.20;74.07
55038;BME280;40937;53.594;10.034;2022-11-14T08:04:26;79100.34;;;-147.20;73.58
55038;BME280;40937;53.594;10.034;2022-11-14T08:07:14;79098.31;;;-147.20;73.56
55038;BME280;40937;53.594;10.034;2022-11-14T08:10:00;79108.44;;;-147.20;73.93
55038;BME280;40937;53.594;10.034;2022-11-14T08:12:56;79096.31;;;-147.20;73.65
55038;BME280;40937;53.594;10.034;2022-11-14T08:15:44;79104.38;;;-147.20;73.86
55038;BME280;40937;53.594;10.034;2022-11-14T08:18:30;79102.38;;;-147.20;74.27
55038;BME280;40937;53.594;10.034;2022-11-14T08:21:16;79108.44;;;-147.20;74.51
55038;BME280;40937;53.594;10.034;2022-11-14T08:24:03;79092.28;;;-147.20;73.93
55038;BME280;40937;53.594;10.034;2022-11-14T08:26:49;79090.25;;;-147.20;73.81
55038;BME280;40937;53.594;10.034;2022-11-14T08:29:37;79088.22;;;-147.20;73.47
55038;BME280;40937;53.594;10.034;2022-11-14T08:43:41;79116.50;;;-147.20;73.85
55038;BME280;40937;53.594;10.034;2022-11-14T08:50:29;79116.50;;;-147.20;73.87
55038;BME280;40937;53.594;10.034;2022-11-14T08:53:15;79118.53;;;-147.20;74.08
55038;BME280;40937;53.594;10.034;2022-11-14T08:56:20;79118.53;;;-147.20;73.95
55038;BME280;40937;53.594;10.034;2022-11-14T08:59:14;79130.63;;;-147.20;74.50
55038;BME280;40937;53.594;10.034;2022-11-14T09:01:59;79110.44;;;-147.20;74.04
55038;BME280;40937;53.594;10.034;2022-11-14T09:04:45;79108.44;;;-147.20;74.09
55038;BME280;40937;53.594;10.034;2022-11-14T09:07:37;79112.47;;;-147.20;74.61
55038;BME280;40937;53.594;10.034;2022-11-14T09:10:24;79102.38;;;-147.20;74.18
55038;BME280;40937;53.594;10.034;2022-11-14T09:13:09;79100.34;;;-147.20;74.17
55038;BME280;40937;53.594;10.034;2022-11-14T09:15:54;79100.34;;;-147.20;74.19
55038;BME280;40937;53.594;10.034;2022-11-14T09:18:39;79106.41;;;-147.20;74.30
55038;BME280;40937;53.594;10.034;2022-11-14T09:21:24;79110.44;;;-147.20;74.48
55038;BME280;40937;53.594;10.034;2022-11-14T09:24:11;79102.38;;;-147.20;74.60
55038;BME280;40937;53.594;10.034;2022-11-14T09:26:57;79096.31;;;-147.20;74.33
55038;BME280;40937;53.594;10.034;2022-11-14T09:29:42;79104.38;;;-147.20;74.52
55038;BME280;40937;53.594;10.034;2022-11-14T09:32:27;79104.38;;;-147.20;74.55
55038;BME280;40937;53.594;10.034;2022-11-14T09:35:13;79106.41;;;-147.20;74.62
55038;BME280;40937;53.594;10.034;2022-11-14T09:37:59;79096.31;;;-147.20;74.35
55038;BME280;40937;53.594;10.034;2022-11-14T09:40:53;79090.25;;;-147.20;74.21
55038;BME280;40937;53.594;10.034;2022-11-14T09:44:05;79078.13;;;-147.20;74.42
55038;BME280;40937;53.594;10.034;2022-11-14T09:46:55;79066.00;;;-147.20;74.02
55038;BME280;40937;53.594;10.034;2022-11-14T09:49:43;79066.00;;;-147.20;74.00
55038;BME280;40937;53.594;10.034;2022-11-14T09:52:34;79066.00;;;-147.20;74.51
55038;BME280;40937;53.594;10.034;2022-11-14T09:55:21;79059.97;;;-147.20;74.48
55038;BME280;40937;53.594;10.034;2022-11-14T09:58:14;79051.88;;;-147.20;73.98
55038;BME280;40937;53.594;10.034;2022-11-14T10:01:04;79051.88;;;-147.20;73.60
55038;BME280;40937;53.594;10.034;2022-11-14T10:03:56;79059.97;;;-147.20;74.16
55038;BME280;40937;53.594;10.034;2022-11-14T10:06:50;79053.91;;;-147.20;73.76
55038;BME280;40937;53.594;10.034;2022-11-14T10:09:49;79051.88;;;-147.20;73.74
55038;BME280;40937;53.594;10.034;2022-11-14T10:12:43;79066.00;;;-147.20;74.12
55038;BME280;40937;53.594;10.034;2022-11-14T10:15:36;79064.00;;;-147.20;74.08
55038;BME280;40937;53.594;10.034;2022-11-14T10:18:37;79037.75;;;-147.20;73.35
55038;BME280;40937;53.594;10.034;2022-11-14T10:21:37;79037.75;;;-147.20;73.96
55038;BME280;40937;53.594;10.034;2022-11-14T10:24:39;79041.78;;;-147.20;73.91
55038;BME280;40937;53.594;10.034;2022-11-14T10:27:36;79031.69;;;-147.20;73.51
55038;BME280;40937;53.594;10.034;2022-11-14T10:30:29;79023.59;;;-147.20;73.53
55038;BME280;40937;53.594;10.034;2022-11-14T10:33:29;79009.47;;;-147.20;73.42
55038;BME280;40937;53.594;10.034;2022-11-14T10:36:23;79009.47;;;-147.20;73.42
55038;BME280;40937;53.594;10.034;2022-11-14T10:39:14;78989.28;;;-147.20;73.15
55038;BME280;40937;53.594;10.034;2022-11-14T10:42:02;78979.16;;;-147.20;72.93
55038;BME280;40937;53.594;10.034;2022-11-14T10:45:03;78981.19;;;-147.20;72.74
55038;BME280;40937;53.594;10.034;2022-11-14T10:47:54;78983.22;;;-147.20;72.88
55038;BME280;40937;53.594;10.034;2022-11-14T10:50:46;78979.16;;;-147.20;72.69
55038;BME280;40937;53.594;10.034;2022-11-14T10:53:42;78965.03;;;-147.20;72.44
55038;BME280;40937;53.594;10.034;2022-11-14T10:56:31;78954.94;;;-147.20;72.20
55038;BME280;40937;53.594;10.034;2022-11-14T10:59:17;78946.84;;;-147.20;72.23
55038;BME280;40937;53.594;10.034;2022-11-14T11:02:03;78938.78;;;-147.20;72.39
55038;BME280;40937;53.594;10.034;2022-11-14T11:04:48;78942.81;;;-147.20;72.49
55038;BME280;40937;53.594;10.034;2022-11-14T11:07:43;78918.59;;;-147.20;72.03
55038;BME280;40937;53.594;10.034;2022-11-14T11:10:46;78914.53;;;-147.20;72.10
55038;BME280;40937;53.594;10.034;2022-11-14T11:57:37;78716.63;;;-147.20;67.48
55038;BME280;40937;53.594;10.034;2022-11-14T12:00:25;78714.63;;;-147.20;67.24
55038;BME280;40937;53.594;10.034;2022-11-14T12:03:12;78692.41;;;-147.20;67.12
55038;BME280;40937;53.594;10.034;2022-11-14T12:06:08;78684.31;;;-147.20;67.11
55038;BME280;40937;53.594;10.034;2022-11-14T12:09:02;78700.47;;;-147.20;67.05
55038;BME280;40937;53.594;10.034;2022-11-14T12:11:53;78710.56;;;-147.20;66.92
55038;BME280;40937;53.594;10.034;2022-11-14T12:15:04;78706.53;;;-147.20;66.40
55038;BME280;40937;53.594;10.034;2022-11-14T12:18:14;78694.41;;;-147.20;66.15
55038;BME280;40937;53.594;10.034;2022-11-14T12:21:10;78718.66;;;-147.20;66.35
55038;BME280;40937;53.594;10.034;2022-11-14T12:24:27;78726.72;;;-147.20;66.73
55038;BME280;40937;53.594;10.034;2022-11-14T12:27:40;78720.66;;;-147.20;66.73
55038;BME280;40937;53.594;10.034;2022-11-14T12:30:30;78726.72;;;-147.20;67.05
55038;BME280;40937;53.594;10.034;2022-11-14T12:33:21;78730.78;;;-147.20;66.96
55038;BME280;40937;53.594;10.034;2022-11-14T12:36:10;78734.81;;;-147.20;66.94
55038;BME280;40937;53.594;10.034;2022-11-14T12:38:59;78696.44;;;-147.20;66.23
55038;BME280;40937;53.594;10.034;2022-11-14T13:09:14;78670.19;;;-147.20;67.04
55038;BME280;40937;53.594;10.034;2022-11-14T13:12:17;78682.31;;;-147.20;67.13
55038;BME280;40937;53.594;10.034;2022-11-14T13:15:28;78664.13;;;-147.20;66.81
55038;BME280;40937;53.594;10.034;2022-11-14T13:18:32;78676.25;;;-147.20;67.08
55038;BME280;40937;53.594;10.034;2022-11-14T13:21:36;78672.22;;;-147.20;66.99
55038;BME280;40937;53.594;10.034;2022-11-14T13:27:50;78676.25;;;-147.20;67.80
55038;BME280;40937;53.594;10.034;2022-11-14T13:31:05;78668.16;;;-147.20;67.78
55038;BME280;40937;53.594;10.034;2022-11-14T13:33:52;78660.09;;;-147.20;67.53
55038;BME280;40937;53.594;10.034;2022-11-14T13:36:46;78660.09;;;-147.20;67.17
55038;BME280;40937;53.594;10.034;2022-11-14T13:39:41;78662.09;;;-147.20;67.60
55038;BME280;40937;53.594;10.034;2022-11-14T13:42:42;78652.00;;;-147.20;67.36
55038;BME280;40937;53.594;10.034;2022-11-14T13:45:46;78654.03;;;-147.20;67.05
55038;BME280;40937;53.594;10.034;2022-11-14T13:49:02;78660.09;;;-147.20;67.14
55038;BME280;40937;53.594;10.034;2022-11-14T13:51:51;78571.25;;;-147.20;83.99
55038;BME280;40937;53.594;10.034;2022-11-14T13:54:46;78530.84;;;-147.20;75.35
55038;BME280;40937;53.594;10.034;2022-11-14T13:57:47;78492.47;;;-147.20;77.25
55038;BME280;40937;53.594;10.034;2022-11-14T14:01:14;78518.72;;;-147.20;67.98
55038;BME280;40937;53.594;10.034;2022-11-14T14:08:13;78536.91;;;-147.20;65.35
55038;BME280;40937;53.594;10.034;2022-11-14T14:11:26;78553.06;;;-147.20;65.91
55038;BME280;40937;53.594;10.034;2022-11-14T14:14:39;78557.09;;;-147.20;65.52
55038;BME280;40937;53.594;10.034;2022-11-14T14:21:45;78583.34;;;-147.20;66.20
55038;BME280;40937;53.594;10.034;2022-11-14T14:25:20;78601.53;;;-147.20;66.78
55038;BME280;40937;53.594;10.034;2022-11-14T14:31:38;78605.56;;;-147.20;66.78
55038;BME280;40937;53.594;10.034;2022-11-14T14:34:31;78603.56;;;-147.20;67.06
55038;BME280;40937;53.594;10.034;2022-11-14T14:37:20;78601.53;;;-147.20;66.89
55038;BME280;40937;53.594;10.034;2022-11-14T14:40:22;78587.38;;;-147.20;74.33
55038;BME280;40937;53.594;10.034;2022-11-14T14:43:22;78547.00;;;-147.20;70.44
55038;BME280;40937;53.594;10.034;2022-11-14T14:46:08;78559.13;;;-147.20;67.80
55038;BME280;40937;53.594;10.034;2022-11-14T14:48:53;78575.28;;;-147.20;67.15
55038;BME280;40937;53.594;10.034;2022-11-14T14:51:38;78573.25;;;-147.20;66.98
55038;BME280;40937;53.594;10.034;2022-11-14T14:54:28;78571.25;;;-147.20;66.77
55038;BME280;40937;53.594;10.034;2022-11-14T14:57:16;78571.25;;;-147.20;66.73
55038;BME280;40937;53.594;10.034;2022-11-14T15:00:05;78583.34;;;-147.20;66.63
55038;BME280;40937;53.594;10.034;2022-11-14T15:02:53;78591.44;;;-147.20;67.06
55038;BME280;40937;53.594;10.034;2022-11-14T15:05:39;78587.38;;;-147.20;67.10
55038;BME280;40937;53.594;10.034;2022-11-14T15:08:24;78601.53;;;-147.20;67.21
55038;BME280;40937;53.594;10.034;2022-11-14T15:11:13;78609.59;;;-147.20;67.74
55038;BME280;40937;53.594;10.034;2022-11-14T15:13:59;78595.47;;;-147.20;67.67
55038;BME280;40937;53.594;10.034;2022-11-14T15:16:46;78593.44;;;-147.20;67.70
55038;BME280;40937;53.594;10.034;2022-11-14T15:19:38;78587.38;;;-147.20;67.27
55038;BME280;40937;53.594;10.034;2022-11-14T15:22:25;78595.47;;;-147.20;67.47
55038;BME280;40937;53.594;10.034;2022-11-14T15:25:17;78613.66;;;-147.20;67.84
55038;BME280;40937;53.594;10.034;2022-11-14T15:28:14;78617.69;;;-147.20;68.00
55038;BME280;40937;53.594;10.034;2022-11-14T15:31:02;78601.53;;;-147.20;67.80
55038;BME280;40937;53.594;10.034;2022-11-14T15:34:00;78609.59;;;-147.20;67.97
55038;BME280;40937;53.594;10.034;2022-11-14T15:37:18;78613.66;;;-147.20;68.08
55038;BME280;40937;53.594;10.034;2022-11-14T15:40:16;78615.66;;;-147.20;68.16
55038;BME280;40937;53.594;10.034;2022-11-14T15:43:35;78633.84;;;-147.20;68.74
55038;BME280;40937;53.594;10.034;2022-11-14T15:46:26;78633.84;;;-147.20;68.94
55038;BME280;40937;53.594;10.034;2022-11-14T15:49:19;78633.84;;;-147.20;69.03
55038;BME280;40937;53.594;10.034;2022-11-14T15:52:17;78641.91;;;-147.20;69.10
55038;BME280;40937;53.594;10.034;2022-11-14T15:55:12;78641.91;;;-147.20;68.96
55038;BME280;40937;53.594;10.034;2022-11-14T15:57:57;78635.84;;;-147.20;69.03
55038;BME280;40937;53.594;10.034;2022-11-14T16:00:49;78650.00;;;-147.20;69.27
55038;BME280;40937;53.594;10.034;2022-11-14T16:03:36;78639.91;;;-147.20;69.15
55038;BME280;40937;53.594;10.034;2022-11-14T16:06:21;78633.84;;;-147.20;69.20
55038;BME280;40937;53.594;10.034;2022-11-14T16:09:12;78639.91;;;-147.20;69.32